sensor_id;sensor_type;location;lat;lon;timestamp;P1;durP1;ratioP1;P2;durP2;ratioP2
79562;SDS011;69026;50.980;11.314;2023-04-24T00:00:14;3.83;;;2.22;;
79562;SDS011;69026;50.980;11.314;2023-04-24T00:02:44;4.90;;;2.60;;
79562;SDS011;69026;50.980;11.314;2023-04-24T00:05:14;4.18;;;2.75;;
79562;SDS011;69026;50.980;11.314;2023-04-24T00:07:41;3.30;;;2.30;;
79562;SDS011;69026;50.980;11.314;2023-04-24T00:10:07;4.88;;;2.55;;
79562;SDS011;69026;50.980;11.314;2023-04-24T00:12:35;3.58;;;2.45;;
79562;SDS011;69026;50.980;11.314;2023-04-24T00:15:01;4.32;;;2.38;;
79562;SDS011;69026;50.980;11.314;2023-04-24T00:17:27;4.93;;;2.25;;
79562;SDS011;69026;50.980;11.314;2023-04-24T00:19:53;3.67;;;2.05;;
79562;SDS011;69026;50.980;11.314;2023-04-24T00:22:24;3.42;;;2.10;;
79562;SDS011;69026;50.980;11.314;2023-04-24T00:24:51;3.58;;;1.95;;
79562;SDS011;69026;50.980;11.314;2023-04-24T00:27:17;2.70;;;1.80;;
79562;SDS011;69026;50.980;11.314;2023-04-24T00:29:42;3.35;;;2.05;;
79562;SDS011;69026;50.980;11.314;2023-04-24T00:32:08;3.45;;;2.38;;
79562;SDS011;69026;50.980;11.314;2023-04-24T00:34:34;4.35;;;2.40;;
79562;SDS011;69026;50.980;11.314;2023-04-24T00:37:00;3.50;;;2.30;;
79562;SDS011;69026;50.980;11.314;2023-04-24T00:39:26;3.22;;;1.90;;
79562;SDS011;69026;50.980;11.314;2023-04-24T00:41:52;3.92;;;2.30;;
79562;SDS011;69026;50.980;11.314;2023-04-24T00:44:18;3.45;;;1.95;;
79562;SDS011;69026;50.980;11.314;2023-04-24T00:46:44;3.53;;;2.25;;
79562;SDS011;69026;50.980;11.314;2023-04-24T00:49:12;3.60;;;2.58;;
79562;SDS011;69026;50.980;11.314;2023-04-24T00:51:39;3.90;;;2.15;;
79562;SDS011;69026;50.980;11.314;2023-04-24T00:54:06;3.22;;;1.95;;
79562;SDS011;69026;50.980;11.314;2023-04-24T00:56:31;4.88;;;2.47;;
79562;SDS011;69026;50.980;11.314;2023-04-24T00:58:58;3.50;;;2.25;;
79562;SDS011;69026;50.980;11.314;2023-04-24T01:01:24;2.95;;;2.20;;
79562;SDS011;69026;50.980;11.314;2023-04-24T01:03:51;3.78;;;2.10;;
79562;SDS011;69026;50.980;11.314;2023-04-24T01:06:18;3.25;;;2.50;;
79562;SDS011;69026;50.980;11.314;2023-04-24T01:08:45;4.22;;;2.15;;
79562;SDS011;69026;50.980;11.314;2023-04-24T01:11:13;3.20;;;2.10;;
79562;SDS011;69026;50.980;11.314;2023-04-24T01:13:39;2.80;;;1.90;;
79562;SDS011;69026;50.980;11.314;2023-04-24T01:16:05;3.65;;;2.40;;
79562;SDS011;69026;50.980;11.314;2023-04-24T01:18:33;4.43;;;1.95;;
79562;SDS011;69026;50.980;11.314;2023-04-24T01:20:59;3.67;;;2.35;;
79562;SDS011;69026;50.980;11.314;2023-04-24T01:23:27;3.20;;;2.10;;
79562;SDS011;69026;50.980;11.314;2023-04-24T01:25:53;4.13;;;1.98;;
79562;SDS011;69026;50.980;11.314;2023-04-24T01:28:19;3.88;;;2.00;;
79562;SDS011;69026;50.980;11.314;2023-04-24T01:30:45;3.72;;;2.38;;
79562;SDS011;69026;50.980;11.314;2023-04-24T01:33:11;3.90;;;2.40;;
79562;SDS011;69026;50.980;11.314;2023-04-24T01:35:37;4.50;;;2.28;;
79562;SDS011;69026;50.980;11.314;2023-04-24T01:38:03;2.95;;;2.00;;
79562;SDS011;69026;50.980;11.314;2023-04-24T01:40:31;3.60;;;2.20;;
79562;SDS011;69026;50.980;11.314;2023-04-24T01:42:58;4.60;;;2.78;;
79562;SDS011;69026;50.980;11.314;2023-04-24T01:45:24;4.82;;;2.50;;
79562;SDS011;69026;50.980;11.314;2023-04-24T01:47:50;4.20;;;1.92;;
79562;SDS011;69026;50.980;11.314;2023-04-24T01:50:16;4.60;;;2.60;;
79562;SDS011;69026;50.980;11.314;2023-04-24T01:52:42;3.47;;;2.28;;
79562;SDS011;69026;50.980;11.314;2023-04-24T01:55:09;3.50;;;2.20;;
79562;SDS011;69026;50.980;11.314;2023-04-24T01:57:36;4.25;;;2.08;;
79562;SDS011;69026;50.980;11.314;2023-04-24T02:00:03;2.95;;;1.95;;
79562;SDS011;69026;50.980;11.314;2023-04-24T02:02:39;3.97;;;2.33;;
79562;SDS011;69026;50.980;11.314;2023-04-24T02:05:06;4.38;;;2.50;;
79562;SDS011;69026;50.980;11.314;2023-04-24T02:07:35;3.55;;;2.10;;
79562;SDS011;69026;50.980;11.314;2023-04-24T02:10:02;3.00;;;1.85;;
79562;SDS011;69026;50.980;11.314;2023-04-24T02:12:29;3.53;;;2.10;;
79562;SDS011;69026;50.980;11.314;2023-04-24T02:14:55;4.63;;;2.75;;
79562;SDS011;69026;50.980;11.314;2023-04-24T02:17:21;3.65;;;2.13;;
79562;SDS011;69026;50.980;11.314;2023-04-24T02:19:47;3.47;;;1.90;;
79562;SDS011;69026;50.980;11.314;2023-04-24T02:22:13;4.07;;;1.90;;
79562;SDS011;69026;50.980;11.314;2023-04-24T02:24:39;3.83;;;2.40;;
79562;SDS011;69026;50.980;11.314;2023-04-24T02:27:05;3.38;;;2.15;;
79562;SDS011;69026;50.980;11.314;2023-04-24T02:29:31;3.67;;;2.70;;
79562;SDS011;69026;50.980;11.314;2023-04-24T02:31:57;2.30;;;1.60;;
79562;SDS011;69026;50.980;11.314;2023-04-24T02:34:23;4.78;;;2.40;;
79562;SDS011;69026;50.980;11.314;2023-04-24T02:36:49;5.53;;;2.55;;
79562;SDS011;69026;50.980;11.314;2023-04-24T02:39:15;3.50;;;2.47;;
79562;SDS011;69026;50.980;11.314;2023-04-24T02:41:44;3.60;;;2.00;;
79562;SDS011;69026;50.980;11.314;2023-04-24T02:44:10;3.85;;;2.30;;
79562;SDS011;69026;50.980;11.314;2023-04-24T02:46:36;4.57;;;2.40;;
79562;SDS011;69026;50.980;11.314;2023-04-24T02:49:02;4.15;;;2.40;;
79562;SDS011;69026;50.980;11.314;2023-04-24T02:51:28;4.40;;;2.63;;
79562;SDS011;69026;50.980;11.314;2023-04-24T02:53:54;3.63;;;2.17;;
79562;SDS011;69026;50.980;11.314;2023-04-24T02:56:20;4.10;;;2.13;;
79562;SDS011;69026;50.980;11.314;2023-04-24T02:58:46;4.65;;;2.45;;
79562;SDS011;69026;50.980;11.314;2023-04-24T03:01:12;4.20;;;2.53;;
79562;SDS011;69026;50.980;11.314;2023-04-24T03:03:38;3.65;;;2.15;;
79562;SDS011;69026;50.980;11.314;2023-04-24T03:06:05;5.05;;;2.60;;
79562;SDS011;69026;50.980;11.314;2023-04-24T03:08:31;3.97;;;2.17;;
79562;SDS011;69026;50.980;11.314;2023-04-24T03:10:58;4.60;;;2.70;;
79562;SDS011;69026;50.980;11.314;2023-04-24T03:13:23;4.03;;;2.63;;
79562;SDS011;69026;50.980;11.314;2023-04-24T03:15:49;4.93;;;2.35;;
79562;SDS011;69026;50.980;11.314;2023-04-24T03:18:15;4.05;;;2.30;;
79562;SDS011;69026;50.980;11.314;2023-04-24T03:20:41;4.85;;;2.67;;
79562;SDS011;69026;50.980;11.314;2023-04-24T03:23:08;5.00;;;2.40;;
79562;SDS011;69026;50.980;11.314;2023-04-24T03:25:35;4.95;;;2.35;;
79562;SDS011;69026;50.980;11.314;2023-04-24T03:28:01;3.92;;;2.42;;
79562;SDS011;69026;50.980;11.314;2023-04-24T03:30:39;3.47;;;2.38;;
79562;SDS011;69026;50.980;11.314;2023-04-24T03:33:06;3.72;;;2.20;;
79562;SDS011;69026;50.980;11.314;2023-04-24T03:35:35;4.40;;;2.92;;
79562;SDS011;69026;50.980;11.314;2023-04-24T03:38:06;4.75;;;2.35;;
79562;SDS011;69026;50.980;11.314;2023-04-24T03:40:56;4.45;;;2.40;;
79562;SDS011;69026;50.980;11.314;2023-04-24T03:43:33;3.65;;;2.15;;
79562;SDS011;69026;50.980;11.314;2023-04-24T03:46:01;3.08;;;2.10;;
79562;SDS011;69026;50.980;11.314;2023-04-24T03:48:28;4.88;;;2.30;;
79562;SDS011;69026;50.980;11.314;2023-04-24T03:50:54;4.18;;;2.38;;
79562;SDS011;69026;50.980;11.314;2023-04-24T03:53:20;4.55;;;2.40;;
79562;SDS011;69026;50.980;11.314;2023-04-24T03:55:46;4.13;;;2.10;;
79562;SDS011;69026;50.980;11.314;2023-04-24T03:58:13;4.70;;;2.78;;
79562;SDS011;69026;50.980;11.314;2023-04-24T04:00:40;3.33;;;2.03;;
79562;SDS011;69026;50.980;11.314;2023-04-24T04:03:41;3.50;;;2.17;;
79562;SDS011;69026;50.980;11.314;2023-04-24T04:06:07;4.88;;;2.80;;
79562;SDS011;69026;50.980;11.314;2023-04-24T04:08:33;4.47;;;2.40;;
79562;SDS011;69026;50.980;11.314;2023-04-24T04:10:59;4.47;;;2.65;;
79562;SDS011;69026;50.980;11.314;2023-04-24T04:13:25;4.43;;;2.45;;
79562;SDS011;69026;50.980;11.314;2023-04-24T04:15:51;4.63;;;2.53;;
79562;SDS011;69026;50.980;11.314;2023-04-24T04:18:16;3.55;;;2.30;;
79562;SDS011;69026;50.980;11.314;2023-04-24T04:20:43;3.83;;;2.20;;
79562;SDS011;69026;50.980;11.314;2023-04-24T04:23:11;4.60;;;2.60;;
79562;SDS011;69026;50.980;11.314;2023-04-24T04:25:56;4.68;;;2.40;;
79562;SDS011;69026;50.980;11.314;2023-04-24T04:28:26;5.15;;;2.30;;
79562;SDS011;69026;50.980;11.314;2023-04-24T04:30:52;4.38;;;2.55;;
79562;SDS011;69026;50.980;11.314;2023-04-24T04:33:26;4.10;;;2.53;;
79562;SDS011;69026;50.980;11.314;2023-04-24T04:35:52;4.18;;;2.90;;
79562;SDS011;69026;50.980;11.314;2023-04-24T04:38:19;3.33;;;2.15;;
79562;SDS011;69026;50.980;11.314;2023-04-24T04:41:07;4.65;;;2.92;;
79562;SDS011;69026;50.980;11.314;2023-04-24T04:43:34;3.67;;;2.42;;
79562;SDS011;69026;50.980;11.314;2023-04-24T04:46:00;3.70;;;2.50;;
79562;SDS011;69026;50.980;11.314;2023-04-24T04:48:44;3.65;;;2.08;;
79562;SDS011;69026;50.980;11.314;2023-04-24T04:51:11;3.63;;;2.35;;
79562;SDS011;69026;50.980;11.314;2023-04-24T04:53:37;4.82;;;2.83;;
79562;SDS011;69026;50.980;11.314;2023-04-24T04:56:03;4.45;;;2.35;;
79562;SDS011;69026;50.980;11.314;2023-04-24T05:01:13;4.18;;;2.00;;
79562;SDS011;69026;50.980;11.314;2023-04-24T05:03:41;3.17;;;2.00;;
79562;SDS011;69026;50.980;11.314;2023-04-24T05:06:10;3.85;;;2.50;;
79562;SDS011;69026;50.980;11.314;2023-04-24T05:08:38;2.80;;;2.28;;
79562;SDS011;69026;50.980;11.314;2023-04-24T05:11:07;4.57;;;2.60;;
79562;SDS011;69026;50.980;11.314;2023-04-24T05:13:33;3.85;;;2.40;;
79562;SDS011;69026;50.980;11.314;2023-04-24T05:16:00;4.70;;;2.28;;
79562;SDS011;69026;50.980;11.314;2023-04-24T05:18:28;4.10;;;2.50;;
79562;SDS011;69026;50.980;11.314;2023-04-24T05:20:54;4.53;;;2.60;;
79562;SDS011;69026;50.980;11.314;2023-04-24T05:23:20;4.50;;;2.60;;
79562;SDS011;69026;50.980;11.314;2023-04-24T05:25:50;3.80;;;2.22;;
79562;SDS011;69026;50.980;11.314;2023-04-24T05:28:16;2.38;;;1.65;;
79562;SDS011;69026;50.980;11.314;2023-04-24T05:30:45;4.47;;;2.60;;
79562;SDS011;69026;50.980;11.314;2023-04-24T05:33:12;4.15;;;2.30;;
79562;SDS011;69026;50.980;11.314;2023-04-24T05:35:40;3.60;;;2.13;;
79562;SDS011;69026;50.980;11.314;2023-04-24T05:38:12;4.32;;;2.60;;
79562;SDS011;69026;50.980;11.314;2023-04-24T05:40:38;3.42;;;2.45;;
79562;SDS011;69026;50.980;11.314;2023-04-24T05:43:04;5.10;;;2.47;;
79562;SDS011;69026;50.980;11.314;2023-04-24T05:45:30;3.10;;;2.20;;
79562;SDS011;69026;50.980;11.314;2023-04-24T05:47:57;3.70;;;2.30;;
79562;SDS011;69026;50.980;11.314;2023-04-24T05:50:23;3.70;;;2.05;;
79562;SDS011;69026;50.980;11.314;2023-04-24T05:52:49;4.30;;;2.47;;
79562;SDS011;69026;50.980;11.314;2023-04-24T05:55:24;3.95;;;2.33;;
79562;SDS011;69026;50.980;11.314;2023-04-24T05:57:51;4.50;;;2.38;;
79562;SDS011;69026;50.980;11.314;2023-04-24T06:00:17;3.58;;;2.17;;
79562;SDS011;69026;50.980;11.314;2023-04-24T06:02:50;4.80;;;2.42;;
79562;SDS011;69026;50.980;11.314;2023-04-24T06:05:18;3.53;;;2.25;;
79562;SDS011;69026;50.980;11.314;2023-04-24T06:07:44;4.25;;;2.30;;
79562;SDS011;69026;50.980;11.314;2023-04-24T06:10:10;4.32;;;2.40;;
79562;SDS011;69026;50.980;11.314;2023-04-24T06:12:40;4.38;;;2.50;;
79562;SDS011;69026;50.980;11.314;2023-04-24T06:15:12;3.30;;;2.13;;
79562;SDS011;69026;50.980;11.314;2023-04-24T06:17:54;4.38;;;2.90;;
79562;SDS011;69026;50.980;11.314;2023-04-24T06:20:20;4.57;;;2.50;;
79562;SDS011;69026;50.980;11.314;2023-04-24T06:22:46;4.38;;;2.67;;
79562;SDS011;69026;50.980;11.314;2023-04-24T06:25:12;3.35;;;2.53;;
79562;SDS011;69026;50.980;11.314;2023-04-24T06:27:38;4.35;;;2.38;;
79562;SDS011;69026;50.980;11.314;2023-04-24T06:30:04;4.53;;;2.20;;
79562;SDS011;69026;50.980;11.314;2023-04-24T06:32:32;4.10;;;2.05;;
79562;SDS011;69026;50.980;11.314;2023-04-24T06:34:59;3.75;;;2.78;;
79562;SDS011;69026;50.980;11.314;2023-04-24T06:37:24;4.40;;;2.53;;
79562;SDS011;69026;50.980;11.314;2023-04-24T06:39:51;4.43;;;2.65;;
79562;SDS011;69026;50.980;11.314;2023-04-24T06:42:17;5.22;;;2.40;;
79562;SDS011;69026;50.980;11.314;2023-04-24T06:44:43;4.65;;;3.00;;
79562;SDS011;69026;50.980;11.314;2023-04-24T06:47:09;4.32;;;2.40;;
79562;SDS011;69026;50.980;11.314;2023-04-24T06:49:39;3.78;;;2.33;;
79562;SDS011;69026;50.980;11.314;2023-04-24T06:52:05;8.30;;;2.22;;
79562;SDS011;69026;50.980;11.314;2023-04-24T06:54:31;4.03;;;1.92;;
79562;SDS011;69026;50.980;11.314;2023-04-24T06:56:58;4.85;;;2.00;;
79562;SDS011;69026;50.980;11.314;2023-04-24T06:59:26;5.15;;;1.92;;
79562;SDS011;69026;50.980;11.314;2023-04-24T07:01:52;3.35;;;2.15;;
79562;SDS011;69026;50.980;11.314;2023-04-24T07:04:18;4.88;;;2.13;;
79562;SDS011;69026;50.980;11.314;2023-04-24T07:06:47;3.85;;;2.20;;
79562;SDS011;69026;50.980;11.314;2023-04-24T07:09:14;3.50;;;1.88;;
79562;SDS011;69026;50.980;11.314;2023-04-24T07:11:44;3.67;;;1.60;;
79562;SDS011;69026;50.980;11.314;2023-04-24T07:14:10;7.72;;;2.33;;
79562;SDS011;69026;50.980;11.314;2023-04-24T07:16:36;4.90;;;2.08;;
79562;SDS011;69026;50.980;11.314;2023-04-24T07:19:02;2.85;;;1.73;;
79562;SDS011;69026;50.980;11.314;2023-04-24T07:21:28;4.00;;;1.77;;
79562;SDS011;69026;50.980;11.314;2023-04-24T07:23:54;4.40;;;1.80;;
79562;SDS011;69026;50.980;11.314;2023-04-24T07:26:20;3.42;;;1.73;;
79562;SDS011;69026;50.980;11.314;2023-04-24T07:28:46;4.15;;;1.90;;
79562;SDS011;69026;50.980;11.314;2023-04-24T07:31:12;3.20;;;1.80;;
79562;SDS011;69026;50.980;11.314;2023-04-24T07:33:38;4.13;;;1.77;;
79562;SDS011;69026;50.980;11.314;2023-04-24T07:36:04;5.18;;;1.50;;
79562;SDS011;69026;50.980;11.314;2023-04-24T07:38:30;5.53;;;1.20;;
79562;SDS011;69026;50.980;11.314;2023-04-24T07:40:56;2.85;;;1.00;;
79562;SDS011;69026;50.980;11.314;2023-04-24T07:43:22;2.65;;;1.08;;
79562;SDS011;69026;50.980;11.314;2023-04-24T07:45:51;1.38;;;0.52;;
79562;SDS011;69026;50.980;11.314;2023-04-24T07:48:17;2.80;;;1.10;;
79562;SDS011;69026;50.980;11.314;2023-04-24T07:50:44;3.40;;;0.95;;
79562;SDS011;69026;50.980;11.314;2023-04-24T07:53:10;2.58;;;0.90;;
79562;SDS011;69026;50.980;11.314;2023-04-24T07:55:36;1.40;;;0.90;;
79562;SDS011;69026;50.980;11.314;2023-04-24T07:58:02;1.40;;;0.80;;
79562;SDS011;69026;50.980;11.314;2023-04-24T08:00:28;2.17;;;0.90;;
79562;SDS011;69026;50.980;11.314;2023-04-24T08:02:54;1.38;;;0.80;;
79562;SDS011;69026;50.980;11.314;2023-04-24T08:05:19;1.00;;;0.73;;
79562;SDS011;69026;50.980;11.314;2023-04-24T08:07:46;2.40;;;1.10;;
79562;SDS011;69026;50.980;11.314;2023-04-24T08:10:14;3.53;;;1.30;;
79562;SDS011;69026;50.980;11.314;2023-04-24T08:12:40;2.70;;;0.77;;
79562;SDS011;69026;50.980;11.314;2023-04-24T08:15:07;1.88;;;0.90;;
79562;SDS011;69026;50.980;11.314;2023-04-24T08:17:34;1.50;;;0.70;;
79562;SDS011;69026;50.980;11.314;2023-04-24T08:20:01;1.60;;;0.90;;
79562;SDS011;69026;50.980;11.314;2023-04-24T08:22:29;1.50;;;0.70;;
79562;SDS011;69026;50.980;11.314;2023-04-24T08:24:55;3.20;;;1.10;;
79562;SDS011;69026;50.980;11.314;2023-04-24T08:27:22;1.80;;;0.80;;
79562;SDS011;69026;50.980;11.314;2023-04-24T08:29:49;2.92;;;1.10;;
79562;SDS011;69026;50.980;11.314;2023-04-24T08:32:15;2.67;;;1.25;;
79562;SDS011;69026;50.980;11.314;2023-04-24T08:34:41;3.05;;;1.00;;
79562;SDS011;69026;50.980;11.314;2023-04-24T08:37:07;1.67;;;0.88;;
79562;SDS011;69026;50.980;11.314;2023-04-24T08:39:33;1.15;;;0.73;;
79562;SDS011;69026;50.980;11.314;2023-04-24T08:41:59;2.60;;;1.15;;
79562;SDS011;69026;50.980;11.314;2023-04-24T08:44:33;2.90;;;0.90;;
79562;SDS011;69026;50.980;11.314;2023-04-24T08:47:03;2.30;;;0.73;;
79562;SDS011;69026;50.980;11.314;2023-04-24T08:49:30;1.27;;;0.75;;
79562;SDS011;69026;50.980;11.314;2023-04-24T08:51:56;5.15;;;0.80;;
79562;SDS011;69026;50.980;11.314;2023-04-24T08:54:23;1.23;;;0.70;;
79562;SDS011;69026;50.980;11.314;2023-04-24T08:56:50;0.80;;;0.45;;
79562;SDS011;69026;50.980;11.314;2023-04-24T08:59:18;4.13;;;1.02;;
79562;SDS011;69026;50.980;11.314;2023-04-24T09:01:46;1.08;;;0.50;;
79562;SDS011;69026;50.980;11.314;2023-04-24T09:04:13;3.88;;;0.80;;
79562;SDS011;69026;50.980;11.314;2023-04-24T09:06:41;2.17;;;0.93;;
79562;SDS011;69026;50.980;11.314;2023-04-24T09:09:07;1.10;;;0.80;;
79562;SDS011;69026;50.980;11.314;2023-04-24T09:11:35;1.63;;;0.90;;
79562;SDS011;69026;50.980;11.314;2023-04-24T09:14:02;1.95;;;0.90;;
79562;SDS011;69026;50.980;11.314;2023-04-24T09:16:29;2.03;;;1.33;;
79562;SDS011;69026;50.980;11.314;2023-04-24T09:18:55;3.72;;;1.98;;
79562;SDS011;69026;50.980;11.314;2023-04-24T09:21:22;4.85;;;2.38;;
79562;SDS011;69026;50.980;11.314;2023-04-24T09:23:58;6.13;;;3.75;;
79562;SDS011;69026;50.980;11.314;2023-04-24T09:26:25;10.20;;;5.68;;
79562;SDS011;69026;50.980;11.314;2023-04-24T09:28:53;11.63;;;4.95;;
79562;SDS011;69026;50.980;11.314;2023-04-24T09:31:19;7.63;;;4.00;;
79562;SDS011;69026;50.980;11.314;2023-04-24T09:33:54;7.95;;;4.40;;
79562;SDS011;69026;50.980;11.314;2023-04-24T09:36:28;6.32;;;3.50;;
79562;SDS011;69026;50.980;11.314;2023-04-24T09:38:57;6.82;;;3.70;;
79562;SDS011;69026;50.980;11.314;2023-04-24T09:41:24;6.30;;;3.95;;
79562;SDS011;69026;50.980;11.314;2023-04-24T09:43:50;8.68;;;3.47;;
79562;SDS011;69026;50.980;11.314;2023-04-24T09:46:15;5.47;;;3.60;;
79562;SDS011;69026;50.980;11.314;2023-04-24T09:48:43;6.60;;;3.65;;
79562;SDS011;69026;50.980;11.314;2023-04-24T09:51:09;5.90;;;3.38;;
79562;SDS011;69026;50.980;11.314;2023-04-24T09:53:36;6.93;;;3.80;;
79562;SDS011;69026;50.980;11.314;2023-04-24T09:56:09;6.47;;;3.40;;
79562;SDS011;69026;50.980;11.314;2023-04-24T09:58:36;7.57;;;3.67;;
79562;SDS011;69026;50.980;11.314;2023-04-24T10:01:02;6.78;;;3.25;;
79562;SDS011;69026;50.980;11.314;2023-04-24T10:03:31;5.10;;;3.10;;
79562;SDS011;69026;50.980;11.314;2023-04-24T10:06:01;4.47;;;2.60;;
79562;SDS011;69026;50.980;11.314;2023-04-24T10:08:34;5.43;;;3.13;;
79562;SDS011;69026;50.980;11.314;2023-04-24T10:11:01;6.07;;;2.80;;
79562;SDS011;69026;50.980;11.314;2023-04-24T10:13:27;5.80;;;3.80;;
79562;SDS011;69026;50.980;11.314;2023-04-24T10:15:54;6.75;;;3.40;;
79562;SDS011;69026;50.980;11.314;2023-04-24T10:18:21;6.72;;;4.13;;
79562;SDS011;69026;50.980;11.314;2023-04-24T10:20:49;8.70;;;4.45;;
79562;SDS011;69026;50.980;11.314;2023-04-24T10:23:15;6.82;;;3.58;;
79562;SDS011;69026;50.980;11.314;2023-04-24T10:25:44;6.68;;;3.33;;
79562;SDS011;69026;50.980;11.314;2023-04-24T10:28:10;4.40;;;2.70;;
79562;SDS011;69026;50.980;11.314;2023-04-24T10:30:37;5.20;;;3.10;;
79562;SDS011;69026;50.980;11.314;2023-04-24T10:33:08;4.57;;;3.42;;
79562;SDS011;69026;50.980;11.314;2023-04-24T10:35:34;7.07;;;3.97;;
79562;SDS011;69026;50.980;11.314;2023-04-24T10:38:05;6.70;;;4.10;;
79562;SDS011;69026;50.980;11.314;2023-04-24T10:40:34;7.80;;;4.07;;
79562;SDS011;69026;50.980;11.314;2023-04-24T10:43:05;7.45;;;3.85;;
79562;SDS011;69026;50.980;11.314;2023-04-24T10:45:33;6.45;;;3.78;;
79562;SDS011;69026;50.980;11.314;2023-04-24T10:50:44;7.68;;;4.30;;
79562;SDS011;69026;50.980;11.314;2023-04-24T10:53:20;7.53;;;3.47;;
79562;SDS011;69026;50.980;11.314;2023-04-24T10:55:49;6.43;;;4.00;;
79562;SDS011;69026;50.980;11.314;2023-04-24T10:58:21;8.65;;;4.30;;
79562;SDS011;69026;50.980;11.314;2023-04-24T11:00:58;5.60;;;3.55;;
79562;SDS011;69026;50.980;11.314;2023-04-24T11:03:28;7.57;;;3.80;;
79562;SDS011;69026;50.980;11.314;2023-04-24T11:10:59;6.13;;;3.90;;
79562;SDS011;69026;50.980;11.314;2023-04-24T11:16:25;5.57;;;3.00;;
79562;SDS011;69026;50.980;11.314;2023-04-24T11:19:02;5.95;;;3.17;;
79562;SDS011;69026;50.980;11.314;2023-04-24T11:21:54;6.00;;;3.20;;
79562;SDS011;69026;50.980;11.314;2023-04-24T11:24:25;5.85;;;3.53;;
79562;SDS011;69026;50.980;11.314;2023-04-24T11:32:14;6.05;;;3.75;;
79562;SDS011;69026;50.980;11.314;2023-04-24T11:34:45;7.13;;;3.60;;
79562;SDS011;69026;50.980;11.314;2023-04-24T11:37:15;6.38;;;3.03;;
79562;SDS011;69026;50.980;11.314;2023-04-24T11:39:42;5.15;;;2.92;;
79562;SDS011;69026;50.980;11.314;2023-04-24T11:42:10;6.00;;;3.17;;
79562;SDS011;69026;50.980;11.314;2023-04-24T11:44:41;5.65;;;3.30;;
79562;SDS011;69026;50.980;11.314;2023-04-24T11:47:08;6.45;;;3.55;;
79562;SDS011;69026;50.980;11.314;2023-04-24T11:49:36;5.57;;;3.13;;
79562;SDS011;69026;50.980;11.314;2023-04-24T11:52:03;5.40;;;3.17;;
79562;SDS011;69026;50.980;11.314;2023-04-24T11:54:36;5.55;;;3.28;;
79562;SDS011;69026;50.980;11.314;2023-04-24T11:57:03;6.28;;;3.28;;
79562;SDS011;69026;50.980;11.314;2023-04-24T11:59:36;5.13;;;3.20;;
79562;SDS011;69026;50.980;11.314;2023-04-24T12:02:07;5.38;;;3.38;;
79562;SDS011;69026;50.980;11.314;2023-04-24T12:04:39;5.82;;;3.67;;
79562;SDS011;69026;50.980;11.314;2023-04-24T12:07:07;4.95;;;3.03;;
79562;SDS011;69026;50.980;11.314;2023-04-24T12:09:46;6.20;;;3.00;;
79562;SDS011;69026;50.980;11.314;2023-04-24T12:12:18;6.30;;;3.70;;
79562;SDS011;69026;50.980;11.314;2023-04-24T12:14:48;6.43;;;3.28;;
79562;SDS011;69026;50.980;11.314;2023-04-24T12:17:28;5.00;;;2.97;;
79562;SDS011;69026;50.980;11.314;2023-04-24T12:20:03;5.35;;;3.05;;
79562;SDS011;69026;50.980;11.314;2023-04-24T12:25:17;5.93;;;3.38;;
79562;SDS011;69026;50.980;11.314;2023-04-24T12:27:44;5.60;;;3.38;;
79562;SDS011;69026;50.980;11.314;2023-04-24T12:30:12;7.68;;;3.95;;
79562;SDS011;69026;50.980;11.314;2023-04-24T12:32:41;8.05;;;3.67;;
79562;SDS011;69026;50.980;11.314;2023-04-24T12:35:08;5.78;;;3.75;;
79562;SDS011;69026;50.980;11.314;2023-04-24T12:37:34;7.10;;;3.90;;
79562;SDS011;69026;50.980;11.314;2023-04-24T12:40:06;7.10;;;3.50;;
79562;SDS011;69026;50.980;11.314;2023-04-24T12:42:33;6.75;;;3.38;;
79562;SDS011;69026;50.980;11.314;2023-04-24T12:45:04;9.52;;;3.90;;
79562;SDS011;69026;50.980;11.314;2023-04-24T12:47:31;6.55;;;3.65;;
79562;SDS011;69026;50.980;11.314;2023-04-24T12:49:58;7.80;;;3.95;;
79562;SDS011;69026;50.980;11.314;2023-04-24T12:52:25;5.90;;;3.38;;
79562;SDS011;69026;50.980;11.314;2023-04-24T12:54:53;5.90;;;3.38;;
79562;SDS011;69026;50.980;11.314;2023-04-24T12:57:22;6.88;;;4.28;;
79562;SDS011;69026;50.980;11.314;2023-04-24T12:59:55;7.72;;;4.32;;
79562;SDS011;69026;50.980;11.314;2023-04-24T13:02:22;6.28;;;4.18;;
79562;SDS011;69026;50.980;11.314;2023-04-24T13:04:49;6.40;;;4.05;;
79562;SDS011;69026;50.980;11.314;2023-04-24T13:07:15;8.43;;;4.85;;
79562;SDS011;69026;50.980;11.314;2023-04-24T13:09:42;7.43;;;4.18;;
79562;SDS011;69026;50.980;11.314;2023-04-24T13:12:09;7.15;;;4.00;;
79562;SDS011;69026;50.980;11.314;2023-04-24T13:14:36;6.50;;;4.05;;
79562;SDS011;69026;50.980;11.314;2023-04-24T13:17:02;7.63;;;4.18;;
79562;SDS011;69026;50.980;11.314;2023-04-24T13:19:29;8.75;;;4.53;;
79562;SDS011;69026;50.980;11.314;2023-04-24T13:21:56;6.70;;;4.20;;
79562;SDS011;69026;50.980;11.314;2023-04-24T13:24:23;7.80;;;4.80;;
79562;SDS011;69026;50.980;11.314;2023-04-24T13:29:17;7.00;;;4.07;;
79562;SDS011;69026;50.980;11.314;2023-04-24T13:31:43;7.82;;;4.43;;
79562;SDS011;69026;50.980;11.314;2023-04-24T13:34:09;6.03;;;3.92;;
79562;SDS011;69026;50.980;11.314;2023-04-24T13:36:35;6.45;;;3.78;;
79562;SDS011;69026;50.980;11.314;2023-04-24T13:39:02;6.72;;;4.00;;
79562;SDS011;69026;50.980;11.314;2023-04-24T13:41:29;6.45;;;4.00;;
79562;SDS011;69026;50.980;11.314;2023-04-24T13:43:56;5.85;;;3.78;;
79562;SDS011;69026;50.980;11.314;2023-04-24T13:46:21;6.18;;;4.10;;
79562;SDS011;69026;50.980;11.314;2023-04-24T13:48:47;8.07;;;4.63;;
79562;SDS011;69026;50.980;11.314;2023-04-24T13:51:13;6.15;;;4.13;;
79562;SDS011;69026;50.980;11.314;2023-04-24T13:53:39;8.05;;;3.88;;
79562;SDS011;69026;50.980;11.314;2023-04-24T13:56:05;5.95;;;4.05;;
79562;SDS011;69026;50.980;11.314;2023-04-24T13:58:31;8.00;;;4.00;;
79562;SDS011;69026;50.980;11.314;2023-04-24T14:00:57;5.85;;;4.18;;
79562;SDS011;69026;50.980;11.314;2023-04-24T14:03:23;7.22;;;4.43;;
79562;SDS011;69026;50.980;11.314;2023-04-24T14:05:49;7.15;;;3.63;;
79562;SDS011;69026;50.980;11.314;2023-04-24T14:08:15;5.88;;;3.28;;
79562;SDS011;69026;50.980;11.314;2023-04-24T14:10:42;6.22;;;3.53;;
79562;SDS011;69026;50.980;11.314;2023-04-24T14:13:08;7.28;;;4.18;;
79562;SDS011;69026;50.980;11.314;2023-04-24T14:15:35;6.43;;;3.50;;
79562;SDS011;69026;50.980;11.314;2023-04-24T14:18:01;6.28;;;3.70;;
79562;SDS011;69026;50.980;11.314;2023-04-24T14:20:27;6.00;;;3.75;;
79562;SDS011;69026;50.980;11.314;2023-04-24T14:22:53;5.72;;;3.38;;
79562;SDS011;69026;50.980;11.314;2023-04-24T14:25:19;8.07;;;3.92;;
79562;SDS011;69026;50.980;11.314;2023-04-24T14:27:45;5.70;;;3.35;;
79562;SDS011;69026;50.980;11.314;2023-04-24T14:30:12;6.22;;;3.47;;
79562;SDS011;69026;50.980;11.314;2023-04-24T14:32:39;6.28;;;3.67;;
79562;SDS011;69026;50.980;11.314;2023-04-24T14:35:05;5.05;;;3.03;;
79562;SDS011;69026;50.980;11.314;2023-04-24T14:37:32;7.93;;;3.60;;
79562;SDS011;69026;50.980;11.314;2023-04-24T14:39:58;7.88;;;3.63;;
79562;SDS011;69026;50.980;11.314;2023-04-24T14:42:23;7.32;;;3.53;;
79562;SDS011;69026;50.980;11.314;2023-04-24T14:44:49;5.82;;;3.50;;
79562;SDS011;69026;50.980;11.314;2023-04-24T14:47:15;5.43;;;3.17;;
79562;SDS011;69026;50.980;11.314;2023-04-24T14:49:43;6.97;;;3.10;;
79562;SDS011;69026;50.980;11.314;2023-04-24T14:52:09;5.50;;;3.15;;
79562;SDS011;69026;50.980;11.314;2023-04-24T14:54:36;7.40;;;3.78;;
79562;SDS011;69026;50.980;11.314;2023-04-24T14:57:02;5.07;;;3.50;;
79562;SDS011;69026;50.980;11.314;2023-04-24T14:59:28;12.88;;;3.60;;